sensor_id;sensor_type;location;lat;lon;timestamp;pressure;altitude;pressure_sealevel;temperature;humidity
34658;BME280;20865;43.312;27.152;2023-04-28T00:00:04;100684.27;;;18.35;36.66
34658;BME280;20865;43.312;27.152;2023-04-28T00:02:32;100685.63;;;18.35;36.49
34658;BME280;20865;43.312;27.152;2023-04-28T00:04:59;100682.98;;;18.33;32.96
34658;BME280;20865;43.312;27.152;2023-04-28T00:07:26;100678.55;;;18.32;33.59
34658;BME280;20865;43.312;27.152;2023-04-28T00:09:52;100678.27;;;18.37;33.45
34658;BME280;20865;43.312;27.152;2023-04-28T00:12:21;100677.72;;;18.39;33.13
34658;BME280;20865;43.312;27.152;2023-04-28T00:14:48;100673.66;;;18.39;33.30
34658;BME280;20865;43.312;27.152;2023-04-28T00:17:15;100677.89;;;18.36;34.07
34658;BME280;20865;43.312;27.152;2023-04-28T00:19:42;100667.34;;;18.31;35.03
34658;BME280;20865;43.312;27.152;2023-04-28T00:22:09;100678.16;;;18.31;33.18
34658;BME280;20865;43.312;27.152;2023-04-28T00:24:36;100679.12;;;18.30;33.25
34658;BME280;20865;43.312;27.152;2023-04-28T00:27:03;100674.44;;;18.25;33.37
34658;BME280;20865;43.312;27.152;2023-04-28T00:29:30;100682.77;;;18.29;33.25
34658;BME280;20865;43.312;27.152;2023-04-28T00:31:57;100689.84;;;18.32;33.27
34658;BME280;20865;43.312;27.152;2023-04-28T00:34:23;100683.47;;;18.33;34.26
34658;BME280;20865;43.312;27.152;2023-04-28T00:36:50;100683.64;;;18.30;34.93
34658;BME280;20865;43.312;27.152;2023-04-28T00:39:17;100686.99;;;18.26;35.22
34658;BME280;20865;43.312;27.152;2023-04-28T00:41:44;100682.07;;;18.26;34.43
34658;BME280;20865;43.312;27.152;2023-04-28T00:44:11;100686.12;;;18.26;34.64
34658;BME280;20865;43.312;27.152;2023-04-28T00:46:38;100685.20;;;18.18;33.51
34658;BME280;20865;43.312;27.152;2023-04-28T00:49:05;100687.74;;;18.21;34.26
34658;BME280;20865;43.312;27.152;2023-04-28T00:51:32;100687.91;;;18.18;34.53
34658;BME280;20865;43.312;27.152;2023-04-28T00:53:58;100697.05;;;18.16;34.73
34658;BME280;20865;43.312;27.152;2023-04-28T00:56:25;100701.27;;;18.13;34.47
34658;BME280;20865;43.312;27.152;2023-04-28T00:58:53;100695.80;;;18.14;34.94
34658;BME280;20865;43.312;27.152;2023-04-28T01:01:19;100698.57;;;18.13;34.44
34658;BME280;20865;43.312;27.152;2023-04-28T01:03:46;100700.09;;;18.09;34.36
34658;BME280;20865;43.312;27.152;2023-04-28T01:06:14;100686.28;;;18.07;34.36
34658;BME280;20865;43.312;27.152;2023-04-28T01:08:42;100689.92;;;18.06;34.58
34658;BME280;20865;43.312;27.152;2023-04-28T01:11:08;100689.80;;;18.00;34.48
34658;BME280;20865;43.312;27.152;2023-04-28T01:13:37;100697.11;;;17.98;34.50
34658;BME280;20865;43.312;27.152;2023-04-28T01:16:04;100695.53;;;18.03;34.74
34658;BME280;20865;43.312;27.152;2023-04-28T01:18:32;100709.11;;;18.01;34.62
34658;BME280;20865;43.312;27.152;2023-04-28T01:20:59;100698.02;;;17.90;33.66
34658;BME280;20865;43.312;27.152;2023-04-28T01:23:26;100695.38;;;17.89;32.90
34658;BME280;20865;43.312;27.152;2023-04-28T01:25:53;100702.55;;;17.90;33.81
34658;BME280;20865;43.312;27.152;2023-04-28T01:28:21;100700.98;;;17.85;34.09
34658;BME280;20865;43.312;27.152;2023-04-28T01:30:48;100698.27;;;17.85;34.51
34658;BME280;20865;43.312;27.152;2023-04-28T01:33:14;100703.67;;;17.85;34.58
34658;BME280;20865;43.312;27.152;2023-04-28T01:35:41;100701.42;;;17.85;34.57
34658;BME280;20865;43.312;27.152;2023-04-28T01:38:08;100701.14;;;17.82;34.94
34658;BME280;20865;43.312;27.152;2023-04-28T01:40:35;100704.00;;;17.79;35.41
34658;BME280;20865;43.312;27.152;2023-04-28T01:43:02;100703.74;;;17.75;35.45
34658;BME280;20865;43.312;27.152;2023-04-28T01:45:29;100699.95;;;17.79;35.42
34658;BME280;20865;43.312;27.152;2023-04-28T01:47:56;100700.72;;;17.73;35.58
34658;BME280;20865;43.312;27.152;2023-04-28T01:50:23;100704.87;;;17.71;35.55
34658;BME280;20865;43.312;27.152;2023-04-28T01:52:49;100696.11;;;17.66;35.72
34658;BME280;20865;43.312;27.152;2023-04-28T01:55:16;100700.80;;;17.62;35.95
34658;BME280;20865;43.312;27.152;2023-04-28T01:57:43;100705.02;;;17.59;36.11
34658;BME280;20865;43.312;27.152;2023-04-28T02:00:10;100714.15;;;17.57;36.53
34658;BME280;20865;43.312;27.152;2023-04-28T02:02:37;100718.63;;;17.58;36.72
34658;BME280;20865;43.312;27.152;2023-04-28T02:05:04;100715.92;;;17.58;37.08
34658;BME280;20865;43.312;27.152;2023-04-28T02:07:31;100715.75;;;17.52;36.93
34658;BME280;20865;43.312;27.152;2023-04-28T02:09:58;100720.03;;;17.56;36.49
34658;BME280;20865;43.312;27.152;2023-04-28T02:12:25;100713.84;;;17.46;36.54
34658;BME280;20865;43.312;27.152;2023-04-28T02:14:51;100719.48;;;17.50;36.49
34658;BME280;20865;43.312;27.152;2023-04-28T02:17:18;100715.27;;;17.53;36.57
34658;BME280;20865;43.312;27.152;2023-04-28T02:19:45;100713.05;;;17.52;36.69
34658;BME280;20865;43.312;27.152;2023-04-28T02:22:12;100715.59;;;17.55;36.04
34658;BME280;20865;43.312;27.152;2023-04-28T02:24:39;100711.22;;;17.53;36.08
34658;BME280;20865;43.312;27.152;2023-04-28T02:27:07;100721.73;;;17.50;35.92
34658;BME280;20865;43.312;27.152;2023-04-28T02:29:34;100715.67;;;17.45;35.79
34658;BME280;20865;43.312;27.152;2023-04-28T02:32:03;100715.77;;;17.44;35.77
34658;BME280;20865;43.312;27.152;2023-04-28T02:34:29;100720.53;;;17.47;35.77
34658;BME280;20865;43.312;27.152;2023-04-28T02:36:56;100719.19;;;17.47;35.74
34658;BME280;20865;43.312;27.152;2023-04-28T02:39:23;100714.98;;;17.50;35.63
34658;BME280;20865;43.312;27.152;2023-04-28T02:41:52;100719.80;;;17.52;35.76
34658;BME280;20865;43.312;27.152;2023-04-28T02:44:20;100722.75;;;17.48;35.74
34658;BME280;20865;43.312;27.152;2023-04-28T02:46:47;100729.56;;;17.46;35.93
34658;BME280;20865;43.312;27.152;2023-04-28T02:49:14;100731.56;;;17.34;35.90
34658;BME280;20865;43.312;27.152;2023-04-28T02:51:41;100728.78;;;17.27;36.16
34658;BME280;20865;43.312;27.152;2023-04-28T02:54:08;100724.80;;;17.25;36.12
34658;BME280;20865;43.312;27.152;2023-04-28T02:56:34;100722.09;;;17.25;35.71
34658;BME280;20865;43.312;27.152;2023-04-28T02:59:01;100724.31;;;17.26;35.72
34658;BME280;20865;43.312;27.152;2023-04-28T03:01:28;100722.25;;;17.22;35.99
34658;BME280;20865;43.312;27.152;2023-04-28T03:03:55;100733.05;;;17.22;35.85
34658;BME280;20865;43.312;27.152;2023-04-28T03:06:22;100728.13;;;17.22;35.56
34658;BME280;20865;43.312;27.152;2023-04-28T03:08:49;100729.57;;;17.20;35.34
34658;BME280;20865;43.312;27.152;2023-04-28T03:11:16;100726.54;;;17.18;35.25
34658;BME280;20865;43.312;27.152;2023-04-28T03:13:43;100728.19;;;17.11;35.47
34658;BME280;20865;43.312;27.152;2023-04-28T03:16:11;100728.46;;;17.16;35.35
34658;BME280;20865;43.312;27.152;2023-04-28T03:18:38;100740.58;;;16.98;35.46
34658;BME280;20865;43.312;27.152;2023-04-28T03:21:06;100739.14;;;17.08;35.72
34658;BME280;20865;43.312;27.152;2023-04-28T03:23:33;100734.85;;;17.04;35.22
34658;BME280;20865;43.312;27.152;2023-04-28T03:26:01;100738.18;;;17.01;35.03
34658;BME280;20865;43.312;27.152;2023-04-28T03:28:28;100739.47;;;17.02;35.12
34658;BME280;20865;43.312;27.152;2023-04-28T03:30:54;100742.95;;;17.04;35.39
34658;BME280;20865;43.312;27.152;2023-04-28T03:33:22;100751.20;;;17.01;35.38
34658;BME280;20865;43.312;27.152;2023-04-28T03:35:49;100758.27;;;17.04;35.14
34658;BME280;20865;43.312;27.152;2023-04-28T03:38:15;100750.98;;;17.06;35.05
34658;BME280;20865;43.312;27.152;2023-04-28T03:40:42;100763.19;;;16.96;34.98
34658;BME280;20865;43.312;27.152;2023-04-28T03:43:09;100759.91;;;16.89;34.82
34658;BME280;20865;43.312;27.152;2023-04-28T03:45:36;100756.30;;;16.80;34.63
34658;BME280;20865;43.312;27.152;2023-04-28T03:48:03;100762.44;;;16.73;34.51
34658;BME280;20865;43.312;27.152;2023-04-28T03:50:30;100769.64;;;16.74;34.31
34658;BME280;20865;43.312;27.152;2023-04-28T03:52:57;100775.42;;;16.75;34.38
34658;BME280;20865;43.312;27.152;2023-04-28T03:55:24;100793.92;;;16.74;34.45
34658;BME280;20865;43.312;27.152;2023-04-28T03:57:52;100791.23;;;16.73;34.35
34658;BME280;20865;43.312;27.152;2023-04-28T04:00:20;100794.81;;;16.73;34.37
34658;BME280;20865;43.312;27.152;2023-04-28T04:02:46;100798.46;;;16.72;34.39
34658;BME280;20865;43.312;27.152;2023-04-28T04:05:13;100794.78;;;16.75;34.06
34658;BME280;20865;43.312;27.152;2023-04-28T04:07:40;100796.91;;;16.77;33.85
34658;BME280;20865;43.312;27.152;2023-04-28T04:10:08;100792.56;;;16.74;34.16
34658;BME280;20865;43.312;27.152;2023-04-28T04:12:36;100795.28;;;16.83;34.17
34658;BME280;20865;43.312;27.152;2023-04-28T04:15:03;100798.89;;;16.92;34.46
34658;BME280;20865;43.312;27.152;2023-04-28T04:17:30;100797.45;;;16.94;34.63
34658;BME280;20865;43.312;27.152;2023-04-28T04:19:57;100800.10;;;16.95;34.50
34658;BME280;20865;43.312;27.152;2023-04-28T04:22:24;100808.98;;;16.97;34.36
34658;BME280;20865;43.312;27.152;2023-04-28T04:24:51;100812.48;;;16.99;33.83
34658;BME280;20865;43.312;27.152;2023-04-28T04:27:18;100807.81;;;17.03;33.72
34658;BME280;20865;43.312;27.152;2023-04-28T04:29:45;100808.54;;;17.06;33.57
34658;BME280;20865;43.312;27.152;2023-04-28T04:32:13;100802.03;;;17.10;33.59
34658;BME280;20865;43.312;27.152;2023-04-28T04:34:40;100812.16;;;17.16;33.54
34658;BME280;20865;43.312;27.152;2023-04-28T04:37:07;100811.05;;;17.20;33.40
34658;BME280;20865;43.312;27.152;2023-04-28T04:39:35;100814.77;;;17.26;33.49
34658;BME280;20865;43.312;27.152;2023-04-28T04:42:01;100809.55;;;17.31;33.30
34658;BME280;20865;43.312;27.152;2023-04-28T04:44:28;100815.91;;;17.39;32.95
34658;BME280;20865;43.312;27.152;2023-04-28T04:46:55;100825.15;;;17.44;32.93
34658;BME280;20865;43.312;27.152;2023-04-28T04:49:22;100825.72;;;17.50;32.85
34658;BME280;20865;43.312;27.152;2023-04-28T04:51:49;100824.13;;;17.55;33.18
34658;BME280;20865;43.312;27.152;2023-04-28T04:54:16;100821.50;;;17.71;32.76
34658;BME280;20865;43.312;27.152;2023-04-28T04:56:44;100832.16;;;17.65;33.04
34658;BME280;20865;43.312;27.152;2023-04-28T04:59:11;100827.61;;;17.74;32.66
34658;BME280;20865;43.312;27.152;2023-04-28T05:01:38;100822.57;;;17.77;32.71
34658;BME280;20865;43.312;27.152;2023-04-28T05:04:05;100836.55;;;17.85;32.78
34658;BME280;20865;43.312;27.152;2023-04-28T05:06:32;100838.80;;;18.03;33.04
34658;BME280;20865;43.312;27.152;2023-04-28T05:08:59;100837.33;;;18.22;33.02
34658;BME280;20865;43.312;27.152;2023-04-28T05:11:25;100839.68;;;18.37;32.08
34658;BME280;20865;43.312;27.152;2023-04-28T05:13:52;100845.16;;;18.44;31.77
34658;BME280;20865;43.312;27.152;2023-04-28T05:16:19;100843.11;;;18.65;32.03
34658;BME280;20865;43.312;27.152;2023-04-28T05:18:46;100843.91;;;18.67;31.06
34658;BME280;20865;43.312;27.152;2023-04-28T05:21:13;100846.23;;;18.66;30.45
34658;BME280;20865;43.312;27.152;2023-04-28T05:23:40;100843.11;;;18.65;30.34
34658;BME280;20865;43.312;27.152;2023-04-28T05:26:07;100848.59;;;18.80;29.55
34658;BME280;20865;43.312;27.152;2023-04-28T05:28:34;100845.77;;;18.91;30.08
34658;BME280;20865;43.312;27.152;2023-04-28T05:31:00;100848.92;;;19.15;30.73
34658;BME280;20865;43.312;27.152;2023-04-28T05:33:28;100847.02;;;19.40;28.93
34658;BME280;20865;43.312;27.152;2023-04-28T05:35:55;100850.38;;;19.59;27.10
34658;BME280;20865;43.312;27.152;2023-04-28T05:38:21;100844.31;;;19.79;27.37
34658;BME280;20865;43.312;27.152;2023-04-28T05:40:48;100839.90;;;19.92;27.35
34658;BME280;20865;43.312;27.152;2023-04-28T05:43:15;100842.45;;;20.09;26.65
34658;BME280;20865;43.312;27.152;2023-04-28T05:45:42;100841.42;;;20.19;26.34
34658;BME280;20865;43.312;27.152;2023-04-28T05:48:09;100848.30;;;20.32;25.76
34658;BME280;20865;43.312;27.152;2023-04-28T05:50:36;100849.65;;;20.32;25.66
34658;BME280;20865;43.312;27.152;2023-04-28T05:53:03;100843.02;;;20.59;24.98
34658;BME280;20865;43.312;27.152;2023-04-28T05:55:30;100849.30;;;20.74;24.35
34658;BME280;20865;43.312;27.152;2023-04-28T05:57:58;100848.00;;;21.08;24.40
34658;BME280;20865;43.312;27.152;2023-04-28T06:00:25;100849.84;;;21.14;23.19
34658;BME280;20865;43.312;27.152;2023-04-28T06:02:52;100856.52;;;21.37;22.65
34658;BME280;20865;43.312;27.152;2023-04-28T06:05:19;100854.37;;;21.35;22.82
34658;BME280;20865;43.312;27.152;2023-04-28T06:07:46;100849.48;;;21.33;22.09
34658;BME280;20865;43.312;27.152;2023-04-28T06:10:13;100857.84;;;20.96;21.73
34658;BME280;20865;43.312;27.152;2023-04-28T06:12:39;100861.56;;;21.15;22.18
34658;BME280;20865;43.312;27.152;2023-04-28T06:15:06;100866.77;;;21.32;23.05
34658;BME280;20865;43.312;27.152;2023-04-28T06:17:33;100863.19;;;21.32;21.92
34658;BME280;20865;43.312;27.152;2023-04-28T06:20:00;100863.89;;;21.35;22.01
34658;BME280;20865;43.312;27.152;2023-04-28T06:22:27;100864.16;;;21.45;22.73
34658;BME280;20865;43.312;27.152;2023-04-28T06:24:54;100862.12;;;21.42;21.46
34658;BME280;20865;43.312;27.152;2023-04-28T06:27:20;100867.39;;;21.57;22.20
34658;BME280;20865;43.312;27.152;2023-04-28T06:29:47;100863.45;;;21.49;21.44
34658;BME280;20865;43.312;27.152;2023-04-28T06:32:14;100866.05;;;21.77;21.88
34658;BME280;20865;43.312;27.152;2023-04-28T06:34:41;100860.95;;;21.85;21.17
34658;BME280;20865;43.312;27.152;2023-04-28T06:37:08;100865.61;;;21.91;21.41
34658;BME280;20865;43.312;27.152;2023-04-28T06:39:35;100861.86;;;21.99;21.67
34658;BME280;20865;43.312;27.152;2023-04-28T06:42:02;100858.17;;;22.20;20.72
34658;BME280;20865;43.312;27.152;2023-04-28T06:44:29;100852.19;;;22.27;21.14
34658;BME280;20865;43.312;27.152;2023-04-28T06:46:56;100864.89;;;22.21;21.55
34658;BME280;20865;43.312;27.152;2023-04-28T06:49:23;100863.41;;;22.23;20.27
34658;BME280;20865;43.312;27.152;2023-04-28T06:51:49;100861.40;;;22.12;20.92
34658;BME280;20865;43.312;27.152;2023-04-28T06:54:16;100865.05;;;22.25;20.74
34658;BME280;20865;43.312;27.152;2023-04-28T06:56:43;100862.64;;;22.13;20.21
34658;BME280;20865;43.312;27.152;2023-04-28T06:59:10;100875.06;;;22.25;21.00
34658;BME280;20865;43.312;27.152;2023-04-28T07:01:37;100869.71;;;22.23;20.08
34658;BME280;20865;43.312;27.152;2023-04-28T07:04:04;100870.97;;;22.05;19.85
34658;BME280;20865;43.312;27.152;2023-04-28T07:06:30;100861.28;;;22.13;19.89
34658;BME280;20865;43.312;27.152;2023-04-28T07:08:57;100859.98;;;22.26;21.61
34658;BME280;20865;43.312;27.152;2023-04-28T07:11:24;100868.16;;;22.39;21.07
34658;BME280;20865;43.312;27.152;2023-04-28T07:13:51;100866.04;;;22.50;20.37
34658;BME280;20865;43.312;27.152;2023-04-28T07:16:18;100867.09;;;22.73;20.62
34658;BME280;20865;43.312;27.152;2023-04-28T07:18:46;100873.72;;;23.07;20.08
34658;BME280;20865;43.312;27.152;2023-04-28T07:21:12;100862.53;;;22.99;19.80
34658;BME280;20865;43.312;27.152;2023-04-28T07:23:39;100868.05;;;23.10;19.86
34658;BME280;20865;43.312;27.152;2023-04-28T07:26:06;100862.58;;;23.95;19.67
34658;BME280;20865;43.312;27.152;2023-04-28T07:28:34;100872.69;;;24.11;18.10
34658;BME280;20865;43.312;27.152;2023-04-28T07:31:01;100872.55;;;23.72;18.52
34658;BME280;20865;43.312;27.152;2023-04-28T07:33:27;100866.56;;;23.12;18.90
34658;BME280;20865;43.312;27.152;2023-04-28T07:35:54;100859.78;;;22.86;19.45
34658;BME280;20865;43.312;27.152;2023-04-28T07:38:22;100864.70;;;22.81;19.81
34658;BME280;20865;43.312;27.152;2023-04-28T07:40:49;100859.25;;;22.94;20.03
34658;BME280;20865;43.312;27.152;2023-04-28T07:43:15;100854.12;;;22.89;20.22
34658;BME280;20865;43.312;27.152;2023-04-28T07:45:42;100857.17;;;22.97;20.36
34658;BME280;20865;43.312;27.152;2023-04-28T07:48:10;100852.48;;;22.87;20.24
34658;BME280;20865;43.312;27.152;2023-04-28T07:50:37;100857.59;;;23.04;19.91
34658;BME280;20865;43.312;27.152;2023-04-28T07:53:04;100860.10;;;23.07;19.63
34658;BME280;20865;43.312;27.152;2023-04-28T07:55:31;100854.13;;;23.20;20.16
34658;BME280;20865;43.312;27.152;2023-04-28T07:57:58;100842.66;;;23.52;19.69
34658;BME280;20865;43.312;27.152;2023-04-28T08:00:24;100848.01;;;23.77;20.16
34658;BME280;20865;43.312;27.152;2023-04-28T08:02:51;100858.22;;;23.87;19.48
34658;BME280;20865;43.312;27.152;2023-04-28T08:05:18;100845.27;;;24.07;19.05
34658;BME280;20865;43.312;27.152;2023-04-28T08:07:45;100851.02;;;24.21;18.98
34658;BME280;20865;43.312;27.152;2023-04-28T08:10:12;100856.48;;;24.32;19.95
34658;BME280;20865;43.312;27.152;2023-04-28T08:12:39;100852.66;;;24.35;18.78
34658;BME280;20865;43.312;27.152;2023-04-28T08:15:08;100850.97;;;24.45;18.49
34658;BME280;20865;43.312;27.152;2023-04-28T08:17:34;100853.30;;;24.44;18.58
34658;BME280;20865;43.312;27.152;2023-04-28T08:20:01;100846.09;;;24.37;18.67
34658;BME280;20865;43.312;27.152;2023-04-28T08:22:28;100847.39;;;24.15;19.31
34658;BME280;20865;43.312;27.152;2023-04-28T08:24:54;100842.81;;;24.27;19.86
34658;BME280;20865;43.312;27.152;2023-04-28T08:27:21;100846.42;;;24.21;18.52
34658;BME280;20865;43.312;27.152;2023-04-28T08:29:50;100835.56;;;24.44;18.59
34658;BME280;20865;43.312;27.152;2023-04-28T08:32:17;100850.11;;;24.44;18.75
34658;BME280;20865;43.312;27.152;2023-04-28T08:34:44;100835.27;;;24.36;18.36
34658;BME280;20865;43.312;27.152;2023-04-28T08:37:11;100836.49;;;24.26;18.29
34658;BME280;20865;43.312;27.152;2023-04-28T08:39:38;100845.03;;;24.10;18.32
34658;BME280;20865;43.312;27.152;2023-04-28T08:42:05;100833.59;;;23.99;18.77
34658;BME280;20865;43.312;27.152;2023-04-28T08:44:35;100832.57;;;23.89;19.62
34658;BME280;20865;43.312;27.152;2023-04-28T08:47:00;100843.25;;;23.98;19.84
34658;BME280;20865;43.312;27.152;2023-04-28T08:49:30;100840.52;;;23.98;18.99
34658;BME280;20865;43.312;27.152;2023-04-28T08:51:58;100832.86;;;24.09;19.26
34658;BME280;20865;43.312;27.152;2023-04-28T08:54:29;100826.55;;;24.19;19.31
34658;BME280;20865;43.312;27.152;2023-04-28T08:56:56;100829.01;;;24.00;18.42
34658;BME280;20865;43.312;27.152;2023-04-28T08:59:23;100825.48;;;23.87;19.09
34658;BME280;20865;43.312;27.152;2023-04-28T09:01:50;100830.87;;;23.99;19.84
34658;BME280;20865;43.312;27.152;2023-04-28T09:04:17;100826.75;;;23.64;19.42
34658;BME280;20865;43.312;27.152;2023-04-28T09:06:44;100824.11;;;23.57;19.80
34658;BME280;20865;43.312;27.152;2023-04-28T09:09:17;100827.03;;;23.48;20.38
34658;BME280;20865;43.312;27.152;2023-04-28T09:11:54;100828.98;;;23.41;20.26
34658;BME280;20865;43.312;27.152;2023-04-28T09:14:22;100822.90;;;23.43;20.22
34658;BME280;20865;43.312;27.152;2023-04-28T09:16:49;100825.25;;;23.36;20.12
34658;BME280;20865;43.312;27.152;2023-04-28T09:19:16;100819.34;;;23.24;20.30
34658;BME280;20865;43.312;27.152;2023-04-28T09:21:53;100826.69;;;23.11;20.75
34658;BME280;20865;43.312;27.152;2023-04-28T09:26:55;100819.38;;;23.11;20.90
34658;BME280;20865;43.312;27.152;2023-04-28T09:29:21;100812.28;;;23.03;20.29
34658;BME280;20865;43.312;27.152;2023-04-28T09:31:48;100813.98;;;22.98;20.38
34658;BME280;20865;43.312;27.152;2023-04-28T09:34:15;100807.42;;;23.01;20.30
34658;BME280;20865;43.312;27.152;2023-04-28T09:36:42;100802.09;;;22.99;21.83
34658;BME280;20865;43.312;27.152;2023-04-28T09:39:09;100802.45;;;22.95;20.65
34658;BME280;20865;43.312;27.152;2023-04-28T09:44:14;100803.57;;;23.16;21.92
34658;BME280;20865;43.312;27.152;2023-04-28T09:46:42;100792.91;;;22.82;20.98
34658;BME280;20865;43.312;27.152;2023-04-28T09:49:09;100800.36;;;22.67;20.98
34658;BME280;20865;43.312;27.152;2023-04-28T09:51:36;100803.23;;;22.71;20.75
34658;BME280;20865;43.312;27.152;2023-04-28T09:54:03;100798.51;;;22.99;20.81
34658;BME280;20865;43.312;27.152;2023-04-28T09:56:31;100802.59;;;22.99;21.02
34658;BME280;20865;43.312;27.152;2023-04-28T09:58:59;100795.58;;;23.08;20.68
34658;BME280;20865;43.312;27.152;2023-04-28T10:01:27;100802.81;;;22.96;20.34
34658;BME280;20865;43.312;27.152;2023-04-28T10:03:53;100793.48;;;23.11;20.87
34658;BME280;20865;43.312;27.152;2023-04-28T10:06:22;100789.56;;;22.97;20.89
34658;BME280;20865;43.312;27.152;2023-04-28T10:08:49;100799.50;;;22.98;20.31
34658;BME280;20865;43.312;27.152;2023-04-28T10:11:16;100790.67;;;23.13;19.27
34658;BME280;20865;43.312;27.152;2023-04-28T10:13:43;100790.50;;;23.33;19.66
34658;BME280;20865;43.312;27.152;2023-04-28T10:16:10;100786.18;;;23.30;19.76
34658;BME280;20865;43.312;27.152;2023-04-28T10:18:37;100793.90;;;23.36;19.76
34658;BME280;20865;43.312;27.152;2023-04-28T10:21:04;100786.27;;;23.47;19.84
34658;BME280;20865;43.312;27.152;2023-04-28T10:26:12;100772.00;;;23.43;19.47
34658;BME280;20865;43.312;27.152;2023-04-28T10:28:50;100782.01;;;23.43;19.55
34658;BME280;20865;43.312;27.152;2023-04-28T10:31:14;100778.95;;;23.53;20.60
34658;BME280;20865;43.312;27.152;2023-04-28T10:33:41;100777.86;;;23.56;19.54
34658;BME280;20865;43.312;27.152;2023-04-28T10:36:08;100775.00;;;23.51;19.84
34658;BME280;20865;43.312;27.152;2023-04-28T10:39:07;100773.42;;;23.30;19.18
34658;BME280;20865;43.312;27.152;2023-04-28T10:41:03;100774.28;;;23.31;20.23
34658;BME280;20865;43.312;27.152;2023-04-28T10:43:34;100781.05;;;23.44;19.64
34658;BME280;20865;43.312;27.152;2023-04-28T10:46:05;100783.00;;;23.42;20.78
34658;BME280;20865;43.312;27.152;2023-04-28T10:56:17;100772.23;;;23.46;19.42
34658;BME280;20865;43.312;27.152;2023-04-28T10:58:47;100763.69;;;23.45;20.48
34658;BME280;20865;43.312;27.152;2023-04-28T11:03:50;100767.20;;;23.28;19.30
34658;BME280;20865;43.312;27.152;2023-04-28T11:06:25;100758.73;;;22.83;21.03
34658;BME280;20865;43.312;27.152;2023-04-28T11:09:01;100750.33;;;22.19;21.32
34658;BME280;20865;43.312;27.152;2023-04-28T11:11:25;100757.64;;;22.49;20.84
34658;BME280;20865;43.312;27.152;2023-04-28T11:13:53;100753.30;;;22.65;21.76
34658;BME280;20865;43.312;27.152;2023-04-28T11:16:21;100751.94;;;22.65;21.13
34658;BME280;20865;43.312;27.152;2023-04-28T11:21:20;100756.36;;;22.29;20.40
34658;BME280;20865;43.312;27.152;2023-04-28T11:23:47;100747.61;;;21.73;20.79
34658;BME280;20865;43.312;27.152;2023-04-28T11:26:14;100751.28;;;22.05;22.31
34658;BME280;20865;43.312;27.152;2023-04-28T11:28:54;100761.92;;;22.15;21.55
34658;BME280;20865;43.312;27.152;2023-04-28T11:31:24;100758.80;;;22.40;22.01
34658;BME280;20865;43.312;27.152;2023-04-28T11:34:07;100755.09;;;22.59;20.22
34658;BME280;20865;43.312;27.152;2023-04-28T11:36:37;100756.22;;;22.75;20.51
34658;BME280;20865;43.312;27.152;2023-04-28T11:39:05;100757.70;;;22.92;20.34
34658;BME280;20865;43.312;27.152;2023-04-28T11:41:33;100758.78;;;23.02;19.91
34658;BME280;20865;43.312;27.152;2023-04-28T11:44:08;100749.20;;;22.96;20.02
34658;BME280;20865;43.312;27.152;2023-04-28T11:46:28;100755.66;;;23.01;19.72
34658;BME280;20865;43.312;27.152;2023-04-28T11:49:03;100761.46;;;22.96;20.11
34658;BME280;20865;43.312;27.152;2023-04-28T11:51:30;100757.38;;;22.96;20.49
34658;BME280;20865;43.312;27.152;2023-04-28T11:53:58;100762.45;;;22.82;20.75
34658;BME280;20865;43.312;27.152;2023-04-28T11:56:25;100762.73;;;22.35;21.22
34658;BME280;20865;43.312;27.152;2023-04-28T11:59:02;100756.16;;;22.00;21.52
34658;BME280;20865;43.312;27.152;2023-04-28T12:01:26;100754.98;;;21.58;21.84
34658;BME280;20865;43.312;27.152;2023-04-28T12:03:53;100758.78;;;22.01;22.66
34658;BME280;20865;43.312;27.152;2023-04-28T12:06:21;100759.17;;;22.28;20.89
34658;BME280;20865;43.312;27.152;2023-04-28T12:08:48;100757.78;;;22.22;21.52
34658;BME280;20865;43.312;27.152;2023-04-28T12:11:16;100753.35;;;22.14;21.38
34658;BME280;20865;43.312;27.152;2023-04-28T12:13:43;100749.02;;;21.79;21.51
34658;BME280;20865;43.312;27.152;2023-04-28T12:16:10;100754.05;;;21.98;21.72
34658;BME280;20865;43.312;27.152;2023-04-28T12:18:43;100753.47;;;21.67;20.75
34658;BME280;20865;43.312;27.152;2023-04-28T12:21:08;100752.95;;;21.87;21.23
34658;BME280;20865;43.312;27.152;2023-04-28T12:23:35;100748.50;;;22.12;21.23
34658;BME280;20865;43.312;27.152;2023-04-28T12:26:02;100735.72;;;21.94;21.06
34658;BME280;20865;43.312;27.152;2023-04-28T12:28:38;100749.64;;;22.41;20.47
34658;BME280;20865;43.312;27.152;2023-04-28T12:31:04;100743.86;;;22.45;21.01
34658;BME280;20865;43.312;27.152;2023-04-28T12:33:34;100744.16;;;21.64;21.97
34658;BME280;20865;43.312;27.152;2023-04-28T12:36:04;100739.19;;;21.51;21.80
34658;BME280;20865;43.312;27.152;2023-04-28T12:38:31;100743.42;;;21.62;21.16
34658;BME280;20865;43.312;27.152;2023-04-28T12:40:58;100741.70;;;21.86;21.18
34658;BME280;20865;43.312;27.152;2023-04-28T12:43:25;100747.61;;;22.19;20.74
34658;BME280;20865;43.312;27.152;2023-04-28T12:45:53;100742.59;;;22.25;20.47
34658;BME280;20865;43.312;27.152;2023-04-28T12:48:22;100734.75;;;22.52;20.43
34658;BME280;20865;43.312;27.152;2023-04-28T12:50:49;100734.31;;;22.27;20.93
34658;BME280;20865;43.312;27.152;2023-04-28T12:53:16;100732.59;;;22.44;21.28
34658;BME280;20865;43.312;27.152;2023-04-28T12:55:43;100724.53;;;22.74;22.47
34658;BME280;20865;43.312;27.152;2023-04-28T12:58:10;100720.75;;;22.64;21.30
34658;BME280;20865;43.312;27.152;2023-04-28T13:00:37;100721.76;;;22.68;20.72